CEL3 weather

East Linton (Kerr Field)
East Linton, Ontario, Canada

Public forecast

Using degrees Celsius for public forecast. Weather courtesy of forecast.io.

METAR (pilot weather report)

Closest report is Wiarton Airport, 8.6 nm (16.0 km) NW. Retrieved 2019/07/17 18:00 UTC (41 minutes ago):

CYVV 171800Z 05009KT 15SM FEW018TCU BKN200 24/20 A2993 RMK TCU1CI4 TCU TOPS E-S WND ESTD SLP134 DENSITY ALT 2000FT

TAF (pilot weather forecast)

Closest forecast is Wiarton Airport, 8.6 nm (16.0 km) NW. Retrieved 2019/07/17 14:00 UTC (5 hours ago):

TAF CYVV 171345Z 1714/1723 03005KT P6SM SKC BECMG 1714/1716 04010KT FM172100 03010KT P6SM BKN150 RMK NXT FCST BY 172000Z